createdAt,value
2024-04-15T00:00:44.407Z,6.28
2024-04-15T00:03:12.199Z,5.32
2024-04-15T00:05:42.486Z,3.35
2024-04-15T00:08:09.721Z,3.97
2024-04-15T00:10:42.697Z,5.72
2024-04-15T00:13:10.044Z,5.32
2024-04-15T00:15:39.944Z,7.30
2024-04-15T00:18:07.534Z,4.50
2024-04-15T00:20:37.405Z,5.10
2024-04-15T00:23:04.854Z,4.82
2024-04-15T00:25:34.685Z,6.70
2024-04-15T00:28:05.145Z,6.97
2024-04-15T00:30:36.575Z,6.80
2024-04-15T00:33:04.260Z,5.05
2024-04-15T00:35:34.225Z,8.45
2024-04-15T00:38:01.476Z,9.23
2024-04-15T00:40:31.606Z,7.15
2024-04-15T00:42:58.901Z,6.22
2024-04-15T00:45:35.092Z,7.65
2024-04-15T00:48:05.011Z,8.50
2024-04-15T00:50:37.835Z,7.78
2024-04-15T00:53:07.008Z,5.75
2024-04-15T00:55:42.250Z,7.82
2024-04-15T00:58:10.344Z,5.93
2024-04-15T01:00:43.501Z,5.15
2024-04-15T01:03:11.515Z,6.05
2024-04-15T01:05:42.538Z,4.03
2024-04-15T01:08:10.390Z,4.25
2024-04-15T01:10:51.195Z,5.75
2024-04-15T01:13:29.282Z,5.25
2024-04-15T01:15:59.903Z,5.38
2024-04-15T01:18:30.732Z,5.75
2024-04-15T01:20:59.631Z,4.30
2024-04-15T01:23:33.033Z,7.13
2024-04-15T01:26:03.113Z,5.60
2024-04-15T01:28:32.970Z,8.13
2024-04-15T01:31:00.333Z,10.05
2024-04-15T01:33:30.272Z,7.88
2024-04-15T01:35:57.536Z,7.90
2024-04-15T01:38:27.357Z,6.00
2024-04-15T01:40:54.696Z,4.57
2024-04-15T01:43:27.156Z,7.03
2024-04-15T01:45:54.849Z,4.20
2024-04-15T01:48:24.749Z,5.55
2024-04-15T01:50:52.030Z,6.28
2024-04-15T01:53:22.033Z,5.70
2024-04-15T01:55:49.312Z,6.95
2024-04-15T01:58:19.220Z,4.93
2024-04-15T02:00:49.266Z,4.03
2024-04-15T02:03:19.285Z,7.55
2024-04-15T02:05:47.152Z,4.68
2024-04-15T02:08:17.006Z,5.00
2024-04-15T02:10:44.511Z,5.88
2024-04-15T02:13:14.471Z,5.28
2024-04-15T02:15:41.917Z,4.55
2024-04-15T02:18:14.526Z,7.18
2024-04-15T02:20:42.956Z,5.95
2024-04-15T02:23:12.916Z,3.67
2024-04-15T02:25:40.231Z,4.40
2024-04-15T02:28:10.126Z,5.63
2024-04-15T02:30:37.547Z,3.88
2024-04-15T02:33:07.948Z,6.32
2024-04-15T02:35:38.143Z,4.82
2024-04-15T02:38:08.310Z,5.78
2024-04-15T02:40:35.584Z,6.97
2024-04-15T02:43:05.477Z,4.57
2024-04-15T02:45:33.093Z,7.05
2024-04-15T02:48:03.010Z,5.32
2024-04-15T02:50:30.355Z,4.75
2024-04-15T02:53:03.201Z,4.13
2024-04-15T02:55:30.626Z,7.05
2024-04-15T02:58:00.530Z,6.60
2024-04-15T03:00:27.931Z,7.78
2024-04-15T03:02:57.814Z,5.45
2024-04-15T03:05:25.365Z,4.75
2024-04-15T03:07:55.494Z,4.60
2024-04-15T03:10:26.937Z,5.72
2024-04-15T03:12:57.081Z,5.25
2024-04-15T03:15:27.043Z,5.28
2024-04-15T03:17:57.019Z,8.18
2024-04-15T03:20:27.448Z,6.03
2024-04-15T03:22:57.337Z,9.05
2024-04-15T03:25:27.575Z,5.88
2024-04-15T03:27:57.445Z,9.02
2024-04-15T03:30:24.688Z,8.25
2024-04-15T03:32:55.012Z,8.00
2024-04-15T03:35:22.439Z,7.82
2024-04-15T03:37:52.368Z,9.60
2024-04-15T03:40:22.244Z,8.70
2024-04-15T03:42:54.764Z,7.22
2024-04-15T03:45:22.042Z,9.77
2024-04-15T03:47:52.638Z,10.55
2024-04-15T03:50:22.239Z,8.82
2024-04-15T03:52:56.072Z,10.57
2024-04-15T03:55:23.378Z,10.25
2024-04-15T03:57:56.304Z,10.27
2024-04-15T04:00:23.668Z,11.82
2024-04-15T04:02:54.175Z,13.07
2024-04-15T04:05:21.483Z,14.27
2024-04-15T04:07:52.303Z,14.63
2024-04-15T04:10:21.057Z,12.20
2024-04-15T04:12:51.199Z,12.68
2024-04-15T04:15:21.153Z,13.90
2024-04-15T04:17:51.157Z,12.48
2024-04-15T04:20:18.916Z,13.88
2024-04-15T04:22:48.781Z,15.93
2024-04-15T04:25:16.671Z,13.55
2024-04-15T04:27:46.587Z,16.85
2024-04-15T04:30:13.915Z,13.20
2024-04-15T04:32:46.997Z,13.10
2024-04-15T04:35:14.532Z,14.45
2024-04-15T04:37:44.324Z,16.05
2024-04-15T04:40:11.620Z,13.48
2024-04-15T04:42:46.096Z,12.15
2024-04-15T04:45:13.718Z,13.68
2024-04-15T04:47:46.235Z,15.20
2024-04-15T04:50:13.520Z,13.82
2024-04-15T04:52:43.410Z,15.48
2024-04-15T04:55:10.694Z,13.18
2024-04-15T04:57:40.905Z,15.43
2024-04-15T05:00:09.340Z,16.80
2024-04-15T05:02:39.183Z,15.48
2024-04-15T05:05:09.411Z,16.83
2024-04-15T05:07:39.372Z,18.88
2024-04-15T05:10:07.361Z,14.80
2024-04-15T05:12:38.129Z,14.57
2024-04-15T05:15:05.864Z,14.48
2024-04-15T05:17:35.856Z,14.05
2024-04-15T05:20:03.787Z,14.30
2024-04-15T05:22:36.366Z,13.73
2024-04-15T05:25:04.408Z,12.90
2024-04-15T05:27:36.415Z,12.85
2024-04-15T05:30:04.155Z,11.57
2024-04-15T05:32:34.095Z,10.95
2024-04-15T05:35:01.391Z,11.60
2024-04-15T05:37:31.260Z,12.05
2024-04-15T05:40:01.558Z,10.60
2024-04-15T05:42:31.473Z,12.38
2024-04-15T05:44:59.122Z,10.63
2024-04-15T05:47:29.032Z,10.95
2024-04-15T05:49:56.426Z,9.82
2024-04-15T05:52:27.305Z,9.98
2024-04-15T05:54:54.647Z,10.18
2024-04-15T05:57:27.467Z,9.45
2024-04-15T05:59:56.198Z,11.38
2024-04-15T06:02:26.631Z,10.02
2024-04-15T06:04:53.849Z,10.48
2024-04-15T06:07:24.369Z,11.13
2024-04-15T06:09:51.994Z,12.00
2024-04-15T06:12:21.931Z,9.10
2024-04-15T06:14:51.854Z,8.80
2024-04-15T06:17:23.595Z,9.13
2024-04-15T06:19:51.146Z,9.07
2024-04-15T06:22:22.686Z,8.63
2024-04-15T06:24:50.083Z,7.75
2024-04-15T06:27:20.401Z,8.02
2024-04-15T06:38:30.359Z,5.47
2024-04-15T06:40:57.998Z,8.80
2024-04-15T06:43:28.405Z,9.10
2024-04-15T06:45:55.810Z,5.10
2024-04-15T06:48:25.675Z,5.38
2024-04-15T06:50:53.056Z,6.75
2024-04-15T06:53:22.871Z,9.15
2024-04-15T06:55:55.443Z,6.00
2024-04-15T06:58:28.960Z,8.18
2024-04-15T07:00:57.905Z,7.35
2024-04-15T07:03:27.938Z,4.95
2024-04-15T07:05:55.224Z,7.50
2024-04-15T07:08:26.254Z,5.97
2024-04-15T07:10:56.160Z,6.00
2024-04-15T07:13:26.426Z,6.78
2024-04-15T07:15:53.690Z,5.78
2024-04-15T07:18:23.609Z,5.90
2024-04-15T07:20:51.128Z,5.95
2024-04-15T07:23:22.887Z,8.38
2024-04-15T07:25:59.645Z,10.02
2024-04-15T07:28:29.562Z,5.80
2024-04-15T07:31:00.060Z,5.93
2024-04-15T07:33:29.993Z,4.53
2024-04-15T07:35:59.163Z,3.40
2024-04-15T07:38:29.316Z,4.25
2024-04-15T07:41:02.108Z,8.13
2024-04-15T07:43:33.009Z,5.15
2024-04-15T07:46:00.511Z,3.67
2024-04-15T07:48:31.251Z,6.32
2024-04-15T07:50:59.467Z,8.25
2024-04-15T07:53:29.774Z,7.55
2024-04-15T07:55:56.998Z,5.57
2024-04-15T07:58:32.072Z,5.22
2024-04-15T08:00:59.440Z,4.82
2024-04-15T08:03:29.416Z,5.03
2024-04-15T08:05:56.669Z,6.95
2024-04-15T08:08:26.507Z,6.53
2024-04-15T08:10:53.723Z,6.38
2024-04-15T08:13:24.008Z,4.95
2024-04-15T08:15:54.691Z,7.45
2024-04-15T08:18:25.090Z,6.40
2024-04-15T08:20:55.943Z,4.43
2024-04-15T08:23:28.907Z,4.40
2024-04-15T08:25:57.118Z,5.00
2024-04-15T08:28:28.103Z,7.22
2024-04-15T08:30:58.073Z,5.05
2024-04-15T08:33:28.273Z,5.80
2024-04-15T08:35:55.841Z,4.68
2024-04-15T08:38:28.288Z,6.35
2024-04-15T08:40:59.411Z,8.73
2024-04-15T08:43:30.414Z,4.35
2024-04-15T08:46:04.229Z,6.00
2024-04-15T08:48:34.872Z,6.35
2024-04-15T08:51:02.661Z,5.47
2024-04-15T08:53:32.857Z,7.28
2024-04-15T08:56:00.153Z,6.10
2024-04-15T08:58:30.435Z,3.92
2024-04-15T09:01:02.180Z,5.30
2024-04-15T09:03:33.468Z,3.65
2024-04-15T09:06:01.078Z,3.65
2024-04-15T09:08:31.510Z,4.97
2024-04-15T09:10:59.119Z,4.25
2024-04-15T09:13:29.012Z,4.78
2024-04-15T09:15:57.184Z,3.55
2024-04-15T09:18:30.118Z,4.25
2024-04-15T09:21:01.062Z,4.38
2024-04-15T09:23:32.838Z,3.53
2024-04-15T09:26:00.365Z,7.25
2024-04-15T09:28:30.414Z,3.65
2024-04-15T09:30:57.784Z,4.78
2024-04-15T09:33:31.949Z,4.90
2024-04-15T09:35:59.835Z,6.25
2024-04-15T09:38:31.329Z,3.80
2024-04-15T09:41:01.140Z,6.03
2024-04-15T09:43:33.629Z,4.45
2024-04-15T09:46:01.448Z,4.10
2024-04-15T09:48:35.411Z,4.72
2024-04-15T09:51:07.925Z,5.00
2024-04-15T09:53:42.465Z,3.30
2024-04-15T09:56:14.695Z,3.38
2024-04-15T09:58:48.380Z,4.80
2024-04-15T10:01:25.224Z,4.50
2024-04-15T10:03:58.478Z,4.32
2024-04-15T10:06:32.212Z,4.63
2024-04-15T10:09:02.610Z,4.53
2024-04-15T10:11:30.893Z,4.10
2024-04-15T10:14:03.110Z,4.47
2024-04-15T10:16:38.697Z,5.18
2024-04-15T10:19:26.669Z,4.50
2024-04-15T10:21:55.463Z,5.85
2024-04-15T10:24:26.530Z,3.45
2024-04-15T10:26:54.272Z,3.97
2024-04-15T10:29:26.037Z,6.53
2024-04-15T10:31:54.725Z,6.10
2024-04-15T10:34:29.079Z,3.00
2024-04-15T10:36:57.678Z,2.22
2024-04-15T10:39:29.180Z,3.03
2024-04-15T10:41:56.778Z,2.30
2024-04-15T10:44:26.657Z,5.05
2024-04-15T10:46:54.260Z,4.78
2024-04-15T10:49:27.102Z,2.60
2024-04-15T10:51:54.819Z,2.97
2024-04-15T10:54:24.666Z,3.15
2024-04-15T10:56:52.384Z,3.22
2024-04-15T10:59:22.607Z,1.65
2024-04-15T11:01:50.700Z,3.45
2024-04-15T11:04:20.813Z,2.53
2024-04-15T11:06:50.936Z,4.18
2024-04-15T11:09:21.335Z,3.20
2024-04-15T11:11:49.765Z,3.67
2024-04-15T11:14:21.926Z,4.80
2024-04-15T11:16:49.488Z,2.55
2024-04-15T11:19:21.458Z,3.15
2024-04-15T11:22:02.308Z,2.90
2024-04-15T11:24:33.142Z,3.60
2024-04-15T11:27:00.623Z,1.48
2024-04-15T11:29:31.045Z,2.15
2024-04-15T11:31:58.503Z,3.85
2024-04-15T11:34:28.557Z,3.42
2024-04-15T11:36:59.870Z,2.92
2024-04-15T11:39:30.238Z,3.05
2024-04-15T11:41:59.312Z,2.33
2024-04-15T11:44:29.226Z,3.28
2024-04-15T11:46:57.547Z,3.33
2024-04-15T11:49:28.690Z,2.92
2024-04-15T11:52:00.522Z,2.38
2024-04-15T11:54:32.736Z,2.63
2024-04-15T11:57:00.102Z,1.45
2024-04-15T11:59:30.043Z,4.38
2024-04-15T12:01:57.564Z,2.53
2024-04-15T12:04:28.184Z,2.15
2024-04-15T12:06:58.313Z,2.42
2024-04-15T12:09:29.382Z,3.65
2024-04-15T12:11:57.109Z,2.15
2024-04-15T12:14:27.073Z,3.60
2024-04-15T12:16:54.776Z,2.28
2024-04-15T12:19:25.413Z,8.43
2024-04-15T12:21:52.777Z,1.90
2024-04-15T12:24:25.829Z,5.18
2024-04-15T12:26:53.135Z,3.10
2024-04-15T12:29:23.079Z,3.60
2024-04-15T12:31:51.668Z,2.13
2024-04-15T12:34:21.831Z,5.88
2024-04-15T12:36:49.534Z,2.15
2024-04-15T12:39:19.384Z,3.08
2024-04-15T12:41:49.246Z,4.00
2024-04-15T12:44:19.151Z,2.83
2024-04-15T12:46:46.764Z,4.75
2024-04-15T12:49:19.033Z,2.38
2024-04-15T12:51:46.385Z,1.70
2024-04-15T12:54:16.510Z,9.77
2024-04-15T12:56:43.915Z,4.35
2024-04-15T12:59:16.441Z,7.88
2024-04-15T13:01:54.786Z,1.98
2024-04-15T13:04:32.250Z,2.53
2024-04-15T13:06:59.699Z,2.45
2024-04-15T13:09:29.719Z,3.28
2024-04-15T13:11:57.347Z,4.10
2024-04-15T13:14:29.848Z,4.00
2024-04-15T13:16:57.178Z,1.73
2024-04-15T13:19:27.185Z,4.45
2024-04-15T13:21:55.051Z,2.15
2024-04-15T13:24:25.041Z,2.92
2024-04-15T13:26:52.517Z,3.03
2024-04-15T13:29:22.418Z,4.75
2024-04-15T13:32:01.295Z,2.55
2024-04-15T13:34:38.989Z,4.50
2024-04-15T13:37:06.696Z,5.93
2024-04-15T13:39:39.131Z,2.53
2024-04-15T13:42:09.075Z,3.60
2024-04-15T13:44:39.099Z,3.67
2024-04-15T13:47:09.252Z,3.35
2024-04-15T13:49:39.544Z,3.13
2024-04-15T13:52:06.946Z,3.60
2024-04-15T13:54:38.223Z,2.28
2024-04-15T13:57:08.214Z,3.28
2024-04-15T13:59:40.622Z,5.28
2024-04-15T14:02:11.147Z,2.42
2024-04-15T14:04:41.613Z,2.70
2024-04-15T14:07:10.203Z,2.85
2024-04-15T14:09:40.099Z,1.85
2024-04-15T14:12:08.032Z,4.53
2024-04-15T14:14:38.485Z,2.50
2024-04-15T14:17:10.999Z,3.28
2024-04-15T14:19:43.569Z,3.35
2024-04-15T14:22:10.936Z,2.58
2024-04-15T14:24:41.918Z,1.25
2024-04-15T14:27:09.645Z,3.75
2024-04-15T14:29:42.267Z,2.42
2024-04-15T14:32:09.519Z,2.45
2024-04-15T14:34:41.035Z,3.47
2024-04-15T14:37:12.760Z,1.92
2024-04-15T14:39:42.673Z,1.48
2024-04-15T14:42:09.922Z,2.67
2024-04-15T14:44:39.761Z,2.35
2024-04-15T14:47:07.831Z,4.53
2024-04-15T14:49:38.224Z,3.58
2024-04-15T14:52:07.103Z,2.08
2024-04-15T14:54:42.630Z,1.85
2024-04-15T14:57:11.813Z,1.80
2024-04-15T14:59:45.727Z,2.42
2024-04-15T15:02:13.036Z,2.17
2024-04-15T15:04:43.174Z,2.25
2024-04-15T15:07:11.285Z,1.67
2024-04-15T15:09:43.802Z,1.52
2024-04-15T15:12:11.086Z,2.38
2024-04-15T15:14:41.480Z,2.10
2024-04-15T15:17:09.978Z,1.40
2024-04-15T15:19:39.958Z,2.55
2024-04-15T15:22:07.974Z,1.40
2024-04-15T15:24:37.999Z,1.83
2024-04-15T15:27:08.567Z,2.35
2024-04-15T15:29:39.911Z,2.67
2024-04-15T15:32:08.418Z,3.63
2024-04-15T15:34:39.569Z,2.83
2024-04-15T15:37:07.357Z,1.83
2024-04-15T15:39:37.869Z,1.45
2024-04-15T15:42:09.612Z,1.58
2024-04-15T15:44:39.523Z,3.33
2024-04-15T15:47:06.934Z,5.32
2024-04-15T15:49:37.006Z,2.38
2024-04-15T15:52:05.825Z,3.58
2024-04-15T15:54:35.804Z,2.50
2024-04-15T15:57:04.006Z,1.27
2024-04-15T15:59:36.517Z,1.38
2024-04-15T16:02:04.197Z,0.52
2024-04-15T16:04:34.506Z,1.15
2024-04-15T16:07:05.170Z,0.88
2024-04-15T16:09:38.009Z,0.57
2024-04-15T16:12:06.632Z,1.30
2024-04-15T16:14:39.213Z,0.82
2024-04-15T16:17:06.627Z,1.95
2024-04-15T16:19:36.713Z,2.30
2024-04-15T16:22:04.322Z,0.80
2024-04-15T16:24:34.178Z,1.20
2024-04-15T16:27:01.406Z,1.30
2024-04-15T16:29:31.399Z,2.53
2024-04-15T16:32:01.427Z,7.82
2024-04-15T16:34:57.043Z,0.80
2024-04-15T16:37:25.049Z,1.35
2024-04-15T16:39:55.990Z,1.15
2024-04-15T16:42:23.683Z,2.03
2024-04-15T16:44:53.531Z,1.83
2024-04-15T16:47:25.227Z,0.52
2024-04-15T16:49:57.178Z,0.90
2024-04-15T16:52:24.526Z,1.58
2024-04-15T16:54:54.529Z,1.20
2024-04-15T16:57:21.820Z,0.60
2024-04-15T16:59:51.667Z,0.77
2024-04-15T17:02:19.013Z,2.17
2024-04-15T17:04:51.564Z,1.40
2024-04-15T17:07:19.271Z,2.08
2024-04-15T17:09:49.180Z,3.83
2024-04-15T17:12:16.504Z,3.25
2024-04-15T17:14:46.407Z,1.55
2024-04-15T17:17:14.569Z,2.55
2024-04-15T17:19:44.574Z,3.90
2024-04-15T17:22:14.461Z,2.35
2024-04-15T17:24:44.467Z,1.10
2024-04-15T17:27:12.048Z,0.85
2024-04-15T17:29:42.149Z,0.85
2024-04-15T17:32:09.730Z,1.00
2024-04-15T17:34:39.631Z,1.58
2024-04-15T17:37:07.227Z,1.95
2024-04-15T17:39:39.689Z,1.70
2024-04-15T17:42:07.023Z,2.50
2024-04-15T17:44:36.923Z,5.32
2024-04-15T17:47:04.646Z,1.95
2024-04-15T17:49:34.629Z,1.30
2024-04-15T17:52:04.567Z,1.38
2024-04-15T17:54:32.375Z,1.65
2024-04-15T17:57:05.022Z,5.07
2024-04-15T17:59:32.541Z,1.83
2024-04-15T18:02:03.955Z,1.27
2024-04-15T18:04:31.450Z,2.15
2024-04-15T18:07:01.463Z,1.40
2024-04-15T18:09:30.563Z,2.05
2024-04-15T18:12:01.381Z,1.67
2024-04-15T18:14:32.358Z,1.85
2024-04-15T18:17:02.742Z,2.38
2024-04-15T18:19:30.277Z,1.55
2024-04-15T18:22:00.481Z,2.70
2024-04-15T18:24:29.734Z,1.52
2024-04-15T18:26:59.947Z,2.03
2024-04-15T18:29:27.185Z,1.77
2024-04-15T18:31:59.726Z,1.70
2024-04-15T18:34:28.709Z,3.30
2024-04-15T18:36:58.971Z,1.95
2024-04-15T18:39:26.223Z,2.00
2024-04-15T18:41:56.468Z,1.33
2024-04-15T18:44:23.899Z,3.60
2024-04-15T18:46:54.080Z,2.65
2024-04-15T18:49:24.058Z,4.00
2024-04-15T18:51:54.599Z,3.05
2024-04-15T18:54:21.913Z,0.80
2024-04-15T18:56:52.314Z,3.00
2024-04-15T18:59:19.569Z,4.15
2024-04-15T19:01:49.527Z,1.60
2024-04-15T19:04:16.881Z,1.58
2024-04-15T19:06:49.641Z,1.63
2024-04-15T19:09:17.885Z,0.82
2024-04-15T19:11:47.765Z,1.20
2024-04-15T19:14:15.103Z,1.90
2024-04-15T19:16:45.324Z,1.60
2024-04-15T19:19:13.635Z,1.10
2024-04-15T19:21:43.580Z,2.65
2024-04-15T19:24:13.526Z,4.13
2024-04-15T19:26:43.524Z,5.30
2024-04-15T19:29:11.123Z,1.02
2024-04-15T19:31:41.200Z,7.07
2024-04-15T19:34:08.521Z,3.33
2024-04-15T19:36:38.480Z,3.85
2024-04-15T19:39:05.791Z,5.10
2024-04-15T19:41:38.521Z,1.30
2024-04-15T19:44:06.142Z,1.27
2024-04-15T19:46:37.068Z,2.63
2024-04-15T19:49:04.438Z,0.90
2024-04-15T19:51:35.858Z,1.10
2024-04-15T19:54:04.801Z,1.42
2024-04-15T19:56:37.856Z,2.28
2024-04-15T19:59:05.356Z,1.48
2024-04-15T20:01:35.289Z,1.33
2024-04-15T20:04:02.924Z,1.75
2024-04-15T20:06:33.440Z,1.95
2024-04-15T20:09:01.036Z,2.03
2024-04-15T20:11:31.078Z,1.67
2024-04-15T20:14:01.734Z,1.88
2024-04-15T20:16:31.944Z,3.50
2024-04-15T20:19:03.846Z,1.48
2024-04-15T20:21:34.447Z,1.73
2024-04-15T20:24:02.273Z,1.77
2024-04-15T20:26:34.734Z,1.38
2024-04-15T20:29:04.963Z,2.30
2024-04-15T20:31:35.037Z,0.95
2024-04-15T20:34:02.604Z,2.20
2024-04-15T20:36:33.765Z,2.30
2024-04-15T20:39:01.180Z,0.90
2024-04-15T20:41:31.392Z,3.33
2024-04-15T20:43:59.115Z,2.60
2024-04-15T20:46:32.925Z,2.10
2024-04-15T20:49:00.626Z,1.38
2024-04-15T20:51:30.902Z,1.35
2024-04-15T20:53:59.377Z,3.55
2024-04-15T20:56:29.540Z,3.50
2024-04-15T20:58:57.037Z,2.58
2024-04-15T21:01:27.271Z,2.78
2024-04-15T21:03:58.651Z,3.70
2024-04-15T21:06:29.049Z,4.70
2024-04-15T21:08:56.738Z,1.23
2024-04-15T21:11:26.899Z,2.65
2024-04-15T21:13:54.272Z,1.63
2024-04-15T21:16:24.728Z,1.52
2024-04-15T21:18:52.622Z,6.38
2024-04-15T21:21:25.795Z,2.67
2024-04-15T21:23:53.630Z,1.20
2024-04-15T21:26:23.719Z,3.72
2024-04-15T21:28:51.064Z,1.77
2024-04-15T21:31:21.015Z,3.13
2024-04-15T21:33:48.381Z,4.60
2024-04-15T21:36:18.362Z,1.95
2024-04-15T21:38:50.345Z,2.70
2024-04-15T21:41:20.166Z,2.85
2024-04-15T21:43:48.055Z,1.67
2024-04-15T21:46:17.913Z,3.20
2024-04-15T21:48:45.525Z,1.27
2024-04-15T21:51:15.405Z,2.50
2024-04-15T21:53:42.804Z,2.08
2024-04-15T21:56:15.657Z,4.35
2024-04-15T21:58:43.185Z,3.03
2024-04-15T22:01:13.593Z,4.38
2024-04-15T22:03:41.052Z,3.67
2024-04-15T22:06:11.652Z,2.45
2024-04-15T22:08:38.891Z,3.28
2024-04-15T22:11:09.290Z,3.30
2024-04-15T22:13:39.279Z,2.40
2024-04-15T22:16:10.787Z,3.17
2024-04-15T22:18:38.165Z,3.88
2024-04-15T22:21:09.530Z,6.00
2024-04-15T22:23:36.771Z,5.82
2024-04-15T22:26:08.094Z,3.28
2024-04-15T22:28:35.492Z,5.40
2024-04-15T22:31:08.116Z,3.58
2024-04-15T22:33:35.535Z,5.82
2024-04-15T22:36:05.454Z,6.82
2024-04-15T22:38:34.660Z,4.45
2024-04-15T22:41:04.519Z,5.55
2024-04-15T22:43:34.504Z,3.80
2024-04-15T22:46:04.589Z,3.58
2024-04-15T22:48:35.331Z,5.72
2024-04-15T22:51:02.848Z,3.50
2024-04-15T22:53:33.049Z,2.00
2024-04-15T22:56:00.342Z,2.92
2024-04-15T22:58:30.652Z,3.20
2024-04-15T23:00:58.636Z,2.22
2024-04-15T23:03:31.371Z,2.55
2024-04-15T23:05:58.708Z,6.60
2024-04-15T23:08:28.599Z,10.40
2024-04-15T23:10:55.951Z,1.70
2024-04-15T23:13:25.860Z,7.95
2024-04-15T23:15:53.569Z,5.22
2024-04-15T23:18:23.443Z,2.00
2024-04-15T23:20:53.597Z,2.65
2024-04-15T23:23:23.605Z,3.53
2024-04-15T23:25:51.281Z,4.50
2024-04-15T23:28:21.760Z,3.50
2024-04-15T23:30:56.687Z,2.42
2024-04-15T23:33:28.213Z,2.47
2024-04-15T23:36:02.354Z,4.18
2024-04-15T23:38:29.592Z,3.10
2024-04-15T23:40:59.548Z,2.40
2024-04-15T23:43:26.997Z,1.30
2024-04-15T23:46:16.054Z,1.50
2024-04-15T23:49:02.406Z,1.83
2024-04-15T23:51:53.632Z,2.72
2024-04-15T23:54:39.380Z,2.83
2024-04-15T23:57:27.842Z,2.78
2024-04-15T23:59:55.127Z,2.42
